createdAt,value
2022-11-14T00:01:00.119Z,78.80
2022-11-14T00:03:26.589Z,79.71
2022-11-14T00:05:53.017Z,81.30
2022-11-14T00:08:22.423Z,81.65
2022-11-14T00:10:50.766Z,79.67
2022-11-14T00:13:19.025Z,78.32
2022-11-14T00:15:50.180Z,77.79
2022-11-14T00:18:17.506Z,78.36
2022-11-14T00:20:43.972Z,80.60
2022-11-14T00:23:10.406Z,79.50
2022-11-14T00:25:36.828Z,79.07
2022-11-14T00:28:03.299Z,80.91
2022-11-14T00:30:29.823Z,80.25
2022-11-14T00:32:56.263Z,80.46
2022-11-14T00:35:22.976Z,82.07
2022-11-14T00:37:50.195Z,80.92
2022-11-14T00:40:16.718Z,81.31
2022-11-14T00:42:43.236Z,80.57
2022-11-14T00:45:10.278Z,80.50
2022-11-14T00:47:37.000Z,83.40
2022-11-14T00:50:04.686Z,83.16
2022-11-14T00:52:31.180Z,81.94
2022-11-14T00:54:57.587Z,80.53
2022-11-14T00:57:24.073Z,83.36
2022-11-14T00:59:50.556Z,81.73
2022-11-14T01:02:16.975Z,82.73
2022-11-14T01:04:43.418Z,82.29
2022-11-14T01:07:09.873Z,81.42
2022-11-14T01:09:36.376Z,85.07
2022-11-14T01:12:02.851Z,83.04
2022-11-14T01:14:29.334Z,83.11
2022-11-14T01:16:55.766Z,81.30
2022-11-14T01:19:22.207Z,80.42
2022-11-14T01:21:48.657Z,82.87
2022-11-14T01:24:15.084Z,82.82
2022-11-14T01:26:41.522Z,84.34
2022-11-14T01:29:07.954Z,84.99
2022-11-14T01:31:34.409Z,84.43
2022-11-14T01:34:00.925Z,83.09
2022-11-14T01:36:27.324Z,84.84
2022-11-14T01:38:54.553Z,84.14
2022-11-14T01:41:21.496Z,86.10
2022-11-14T01:43:48.743Z,83.75
2022-11-14T01:46:50.067Z,83.24
2022-11-14T01:49:25.524Z,83.57
2022-11-14T01:52:18.256Z,84.62
2022-11-14T01:54:57.522Z,84.70
2022-11-14T01:57:29.755Z,83.75
2022-11-14T02:00:01.536Z,84.04
2022-11-14T02:02:27.950Z,83.53
2022-11-14T02:05:02.965Z,84.76
2022-11-14T02:07:33.695Z,83.78
2022-11-14T02:10:04.789Z,83.67
2022-11-14T02:12:31.952Z,84.23
2022-11-14T02:14:59.977Z,83.62
2022-11-14T02:17:30.018Z,85.40
2022-11-14T02:20:05.426Z,84.04
2022-11-14T02:22:32.499Z,84.92
2022-11-14T02:24:58.985Z,83.88
2022-11-14T02:27:25.478Z,86.18
2022-11-14T02:29:51.993Z,84.94
2022-11-14T02:32:18.598Z,86.69
2022-11-14T02:34:45.066Z,86.28
2022-11-14T02:37:11.549Z,85.01
2022-11-14T02:39:38.909Z,83.99
2022-11-14T02:42:05.459Z,84.30
2022-11-14T02:44:31.908Z,84.35
2022-11-14T02:46:58.339Z,85.51
2022-11-14T02:49:24.745Z,83.31
2022-11-14T02:51:51.150Z,83.57
2022-11-14T02:54:17.566Z,83.96
2022-11-14T02:56:44.008Z,82.75
2022-11-14T02:59:10.463Z,81.54
2022-11-14T03:01:37.016Z,81.57
2022-11-14T03:04:04.055Z,80.66
2022-11-14T03:09:07.606Z,80.27
2022-11-14T03:11:34.032Z,80.41
2022-11-14T03:14:00.560Z,80.84
2022-11-14T03:16:27.104Z,80.27
2022-11-14T03:18:53.614Z,79.65
2022-11-14T03:21:22.215Z,78.05
2022-11-14T03:23:48.943Z,78.84
2022-11-14T03:26:15.809Z,79.42
2022-11-14T03:28:42.950Z,78.86
2022-11-14T03:31:12.026Z,80.17
2022-11-14T03:33:38.473Z,80.90
2022-11-14T03:36:06.082Z,81.71
2022-11-14T03:38:33.348Z,80.34
2022-11-14T03:41:00.458Z,79.83
2022-11-14T03:43:31.749Z,79.47
2022-11-14T03:46:02.033Z,79.01
2022-11-14T03:48:30.028Z,78.58
2022-11-14T03:50:57.346Z,78.13
2022-11-14T03:53:23.943Z,77.00
2022-11-14T03:55:51.643Z,77.59
2022-11-14T03:58:18.351Z,78.14
2022-11-14T04:00:44.858Z,77.63
2022-11-14T04:03:11.577Z,78.67
2022-11-14T04:05:38.109Z,78.08
2022-11-14T04:08:05.948Z,78.09
2022-11-14T04:10:32.719Z,80.85
2022-11-14T04:12:59.170Z,81.32
2022-11-14T04:15:25.652Z,80.08
2022-11-14T04:17:52.082Z,81.32
2022-11-14T04:20:18.629Z,83.13
2022-11-14T04:22:46.384Z,83.31
2022-11-14T04:25:12.827Z,83.67
2022-11-14T04:27:39.280Z,81.43
2022-11-14T04:30:06.399Z,81.14
2022-11-14T04:32:33.032Z,83.78
2022-11-14T04:34:59.531Z,81.63
2022-11-14T04:37:25.964Z,82.23
2022-11-14T04:39:52.473Z,81.01
2022-11-14T04:42:18.886Z,80.80
2022-11-14T04:44:45.331Z,81.54
2022-11-14T04:47:11.746Z,81.50
2022-11-14T04:49:38.197Z,79.35
2022-11-14T04:52:04.680Z,79.47
2022-11-14T04:54:31.128Z,80.64
2022-11-14T04:56:57.677Z,82.07
2022-11-14T04:59:24.097Z,81.45
2022-11-14T05:01:50.567Z,82.97
2022-11-14T05:04:17.095Z,82.94
2022-11-14T05:06:43.818Z,81.64
2022-11-14T05:09:10.295Z,80.87
2022-11-14T05:11:36.709Z,83.47
2022-11-14T05:14:03.467Z,83.87
2022-11-14T05:16:29.922Z,82.16
2022-11-14T05:18:56.341Z,82.55
2022-11-14T05:21:22.859Z,81.66
2022-11-14T05:23:49.271Z,82.90
2022-11-14T05:26:16.979Z,81.95
2022-11-14T05:28:43.484Z,82.00
2022-11-14T05:31:13.556Z,82.52
2022-11-14T05:33:40.019Z,82.46
2022-11-14T05:36:09.245Z,82.76
2022-11-14T05:38:35.709Z,83.61
2022-11-14T05:41:13.387Z,83.37
2022-11-14T05:43:40.441Z,84.19
2022-11-14T05:46:12.745Z,85.80
2022-11-14T05:48:39.714Z,83.93
2022-11-14T05:51:07.610Z,83.81
2022-11-14T05:53:34.739Z,83.32
2022-11-14T05:56:05.916Z,84.55
2022-11-14T05:58:33.369Z,83.60
2022-11-14T06:01:08.426Z,83.66
2022-11-14T06:03:37.206Z,85.01
2022-11-14T06:06:05.995Z,85.96
2022-11-14T06:08:33.326Z,86.72
2022-11-14T06:11:05.588Z,85.48
2022-11-14T06:13:32.546Z,85.12
2022-11-14T06:16:04.304Z,84.87
2022-11-14T06:18:32.136Z,84.82
2022-11-14T06:21:25.489Z,84.43
2022-11-14T06:23:52.878Z,84.62
2022-11-14T06:26:26.832Z,84.95
2022-11-14T06:28:53.661Z,84.36
2022-11-14T06:31:20.848Z,83.33
2022-11-14T06:33:48.739Z,84.15
2022-11-14T06:36:15.603Z,85.10
2022-11-14T06:38:43.139Z,83.19
2022-11-14T06:41:10.976Z,84.40
2022-11-14T06:43:42.485Z,83.92
2022-11-14T06:46:11.115Z,84.67
2022-11-14T06:48:38.181Z,81.93
2022-11-14T06:51:06.195Z,82.70
2022-11-14T06:53:34.269Z,80.67
2022-11-14T06:56:09.609Z,80.50
2022-11-14T06:58:41.093Z,81.84
2022-11-14T07:01:21.673Z,80.87
2022-11-14T07:03:48.639Z,81.06
2022-11-14T07:06:17.572Z,81.72
2022-11-14T07:08:44.324Z,81.31
2022-11-14T07:11:22.606Z,84.34
2022-11-14T07:13:54.395Z,85.96
2022-11-14T07:16:24.648Z,83.97
2022-11-14T07:18:51.143Z,83.42
2022-11-14T07:21:17.655Z,83.02
2022-11-14T07:23:44.124Z,84.76
2022-11-14T07:26:11.635Z,85.31
2022-11-14T07:28:40.598Z,85.05
2022-11-14T07:31:09.178Z,84.66
2022-11-14T07:33:35.737Z,85.32
2022-11-14T07:36:02.321Z,85.12
2022-11-14T07:38:31.367Z,85.03
2022-11-14T07:41:00.475Z,83.96
2022-11-14T07:43:28.292Z,82.45
2022-11-14T07:45:59.507Z,81.92
2022-11-14T07:48:25.937Z,83.19
2022-11-14T07:50:52.474Z,82.55
2022-11-14T07:53:19.898Z,83.28
2022-11-14T07:55:46.346Z,83.88
2022-11-14T07:58:13.476Z,82.33
2022-11-14T08:00:39.959Z,83.29
2022-11-14T08:03:08.210Z,81.61
2022-11-14T08:05:35.024Z,82.35
2022-11-14T08:08:01.567Z,82.64
2022-11-14T08:10:33.284Z,82.35
2022-11-14T08:13:25.221Z,82.20
2022-11-14T08:15:48.292Z,81.87
2022-11-14T08:18:14.731Z,80.43
2022-11-14T08:20:41.167Z,83.10
2022-11-14T08:23:07.735Z,81.28
2022-11-14T08:25:34.162Z,83.56
2022-11-14T08:28:00.673Z,81.47
2022-11-14T08:30:28.004Z,82.85
2022-11-14T08:32:54.850Z,82.09
2022-11-14T08:35:22.056Z,80.89
2022-11-14T08:37:48.477Z,83.04
2022-11-14T08:40:15.178Z,81.34
2022-11-14T08:42:41.634Z,82.29
2022-11-14T08:45:08.368Z,81.66
2022-11-14T08:47:34.873Z,83.33
2022-11-14T08:50:01.332Z,81.70
2022-11-14T08:52:27.766Z,81.64
2022-11-14T08:54:54.212Z,82.68
2022-11-14T08:57:20.619Z,82.28
2022-11-14T08:59:47.172Z,80.49
2022-11-14T09:02:14.108Z,80.04
2022-11-14T09:04:40.801Z,80.35
2022-11-14T09:07:07.579Z,82.12
2022-11-14T09:09:34.106Z,81.67
2022-11-14T09:12:00.543Z,80.79
2022-11-14T09:14:27.209Z,79.89
2022-11-14T09:16:53.724Z,80.01
2022-11-14T09:19:20.170Z,79.39
2022-11-14T09:21:46.598Z,80.37
2022-11-14T09:24:13.031Z,79.95
2022-11-14T09:26:39.459Z,79.89
2022-11-14T09:29:06.515Z,78.90
2022-11-14T09:31:32.962Z,78.04
2022-11-14T09:33:59.406Z,76.00
2022-11-14T09:36:25.850Z,78.51
2022-11-14T09:38:52.290Z,78.97
2022-11-14T09:41:34.059Z,77.89
2022-11-14T09:44:20.078Z,76.87
2022-11-14T09:46:53.405Z,78.70
2022-11-14T09:49:38.071Z,79.11
2022-11-14T09:52:45.105Z,78.56
2022-11-14T09:55:17.746Z,77.63
2022-11-14T09:57:45.731Z,77.56
2022-11-14T10:00:13.956Z,76.57
2022-11-14T10:02:48.251Z,77.54
2022-11-14T10:05:37.712Z,76.52
2022-11-14T10:08:04.092Z,75.18
2022-11-14T10:11:12.363Z,77.38
2022-11-14T10:13:39.366Z,77.73
2022-11-14T10:16:32.033Z,77.90
2022-11-14T10:19:10.952Z,76.71
2022-11-14T10:22:15.124Z,75.43
2022-11-14T10:24:58.738Z,76.55
2022-11-14T10:27:31.040Z,76.76
2022-11-14T10:30:14.530Z,75.86
2022-11-14T10:32:59.786Z,76.84
2022-11-14T10:35:41.896Z,77.48
2022-11-14T10:38:26.852Z,75.91
2022-11-14T10:40:58.113Z,75.13
2022-11-14T10:43:30.620Z,75.16
2022-11-14T10:46:03.882Z,74.72
2022-11-14T10:48:33.735Z,76.43
2022-11-14T10:51:32.978Z,75.33
2022-11-14T10:54:17.590Z,76.69
2022-11-14T10:56:52.677Z,75.26
2022-11-14T10:59:19.787Z,75.52
2022-11-14T11:01:55.867Z,74.92
2022-11-14T11:04:28.161Z,74.37
2022-11-14T11:06:57.741Z,75.48
2022-11-14T11:09:46.077Z,74.28
2022-11-14T11:12:23.723Z,74.40
2022-11-14T11:15:23.320Z,74.07
2022-11-14T11:17:56.975Z,76.14
2022-11-14T11:20:29.468Z,76.47
2022-11-14T11:23:03.434Z,75.34
2022-11-14T11:25:31.839Z,72.68
2022-11-14T11:28:07.429Z,73.64
2022-11-14T11:30:34.493Z,74.48
2022-11-14T11:33:19.647Z,74.34
2022-11-14T11:35:49.446Z,72.37
2022-11-14T11:38:17.552Z,71.39
2022-11-14T11:40:46.499Z,70.82
2022-11-14T11:46:24.714Z,71.17
2022-11-14T11:49:00.412Z,70.79
2022-11-14T11:51:28.104Z,71.85
2022-11-14T11:54:22.532Z,71.57
2022-11-14T11:56:55.736Z,70.64
2022-11-14T12:00:00.785Z,70.37
2022-11-14T12:02:28.576Z,72.71
2022-11-14T12:04:57.091Z,72.90
2022-11-14T12:07:48.307Z,73.55
2022-11-14T12:10:20.802Z,73.71
2022-11-14T12:13:14.445Z,73.85
2022-11-14T12:15:55.407Z,74.00
2022-11-14T12:18:59.498Z,70.68
2022-11-14T12:22:03.798Z,71.32
2022-11-14T12:24:45.098Z,71.47
2022-11-14T12:27:45.582Z,71.66
2022-11-14T12:30:12.011Z,70.53
2022-11-14T12:32:44.031Z,69.53
2022-11-14T12:35:24.436Z,69.97
2022-11-14T12:37:56.062Z,69.40
2022-11-14T12:40:32.104Z,70.31
2022-11-14T12:43:00.484Z,69.78
2022-11-14T12:45:36.213Z,68.86
2022-11-14T12:48:25.848Z,68.57
2022-11-14T12:50:56.522Z,68.31
2022-11-14T12:53:39.282Z,68.61
2022-11-14T12:56:24.503Z,68.85
2022-11-14T12:59:22.126Z,69.25
2022-11-14T13:01:56.550Z,68.29
2022-11-14T13:04:41.718Z,67.94
2022-11-14T13:07:20.196Z,68.38
2022-11-14T13:10:11.776Z,68.47
2022-11-14T13:12:57.864Z,66.68
2022-11-14T13:16:05.363Z,69.12
2022-11-14T13:18:50.846Z,68.21
2022-11-14T13:21:46.983Z,67.58
2022-11-14T13:24:18.833Z,66.30
2022-11-14T13:26:47.763Z,65.48
2022-11-14T13:29:36.022Z,65.84
2022-11-14T13:32:02.567Z,67.13
2022-11-14T13:34:47.811Z,65.37
2022-11-14T13:37:39.050Z,65.61
2022-11-14T13:40:28.421Z,65.74
2022-11-14T13:43:16.068Z,66.00
2022-11-14T13:46:03.042Z,65.63
2022-11-14T13:48:47.873Z,64.72
2022-11-14T13:54:17.510Z,65.94
2022-11-14T13:57:00.490Z,65.01
2022-11-14T13:59:36.179Z,65.82
2022-11-14T14:02:15.854Z,65.23
2022-11-14T14:05:02.898Z,63.54
2022-11-14T14:08:07.048Z,66.40
2022-11-14T14:11:17.644Z,63.66
2022-11-14T14:13:49.771Z,65.27
2022-11-14T14:16:34.128Z,66.35
2022-11-14T14:19:26.113Z,65.12
2022-11-14T14:21:55.562Z,66.61
2022-11-14T14:24:28.832Z,63.85
2022-11-14T14:27:04.075Z,64.61
2022-11-14T14:29:58.005Z,63.70
2022-11-14T14:32:24.788Z,63.54
2022-11-14T14:34:53.801Z,64.51
2022-11-14T14:37:25.781Z,64.83
2022-11-14T14:39:56.885Z,64.48
2022-11-14T14:42:24.624Z,63.71
2022-11-14T14:44:51.572Z,63.37
2022-11-14T14:47:40.148Z,63.39
2022-11-14T14:50:17.886Z,63.82
2022-11-14T14:52:44.393Z,64.85
2022-11-14T14:55:29.208Z,63.97
2022-11-14T14:57:55.698Z,63.60
2022-11-14T15:00:29.575Z,64.14
2022-11-14T15:02:56.977Z,63.91
2022-11-14T15:05:28.435Z,63.20
2022-11-14T15:07:58.324Z,63.04
2022-11-14T15:10:29.711Z,63.12
2022-11-14T15:12:57.504Z,63.43
2022-11-14T15:15:27.530Z,63.03
2022-11-14T15:17:56.085Z,63.18
2022-11-14T15:20:29.745Z,64.24
2022-11-14T15:23:15.338Z,65.88
2022-11-14T15:25:42.448Z,65.97
2022-11-14T15:28:35.364Z,65.82
2022-11-14T15:31:04.111Z,65.81
2022-11-14T15:33:33.811Z,66.79
2022-11-14T15:36:12.878Z,68.31
2022-11-14T15:38:44.402Z,68.68
2022-11-14T15:41:11.187Z,68.96
2022-11-14T15:44:05.450Z,69.13
2022-11-14T15:46:37.819Z,69.00
2022-11-14T15:49:21.194Z,70.05
2022-11-14T15:51:57.830Z,70.08
2022-11-14T15:54:35.180Z,71.25
2022-11-14T15:57:11.697Z,71.31
2022-11-14T15:59:38.419Z,71.89
2022-11-14T16:02:30.807Z,71.05
2022-11-14T16:04:58.943Z,70.82
2022-11-14T16:07:25.815Z,70.56
2022-11-14T16:09:52.375Z,70.37
2022-11-14T16:12:18.803Z,70.23
2022-11-14T16:14:45.298Z,70.36
2022-11-14T16:17:16.732Z,70.31
2022-11-14T16:19:44.218Z,70.19
2022-11-14T16:22:17.386Z,68.96
2022-11-14T16:24:43.903Z,69.27
2022-11-14T16:27:10.347Z,69.78
2022-11-14T16:29:36.797Z,69.33
2022-11-14T16:32:03.601Z,69.79
2022-11-14T16:34:30.065Z,69.18
2022-11-14T16:37:01.463Z,70.20
2022-11-14T16:39:28.298Z,69.67
2022-11-14T16:42:01.360Z,69.64
2022-11-14T16:44:27.854Z,70.27
2022-11-14T16:46:54.337Z,70.48
2022-11-14T16:49:20.863Z,69.00
2022-11-14T16:51:50.116Z,69.66
2022-11-14T16:54:18.446Z,70.26
2022-11-14T16:56:45.211Z,70.32
2022-11-14T16:59:12.163Z,71.00
2022-11-14T17:01:38.775Z,69.15
2022-11-14T17:04:06.147Z,69.07
2022-11-14T17:06:32.655Z,69.71
2022-11-14T17:09:00.448Z,69.45
2022-11-14T17:11:27.351Z,70.84
2022-11-14T17:13:54.765Z,70.83
2022-11-14T17:16:21.203Z,69.54
2022-11-14T17:18:52.598Z,69.56
2022-11-14T17:21:19.565Z,70.34
2022-11-14T17:23:46.007Z,70.78
2022-11-14T17:26:13.668Z,69.80
2022-11-14T17:28:41.381Z,70.25
2022-11-14T17:31:08.484Z,69.92
2022-11-14T17:33:35.570Z,70.25
2022-11-14T17:36:06.597Z,71.02
2022-11-14T17:38:37.744Z,69.95
2022-11-14T17:41:07.414Z,69.94
2022-11-14T17:43:39.224Z,70.27
2022-11-14T17:46:11.185Z,69.35
2022-11-14T17:48:41.991Z,69.32
2022-11-14T17:51:11.711Z,69.57
2022-11-14T17:53:38.528Z,69.98
2022-11-14T17:56:07.734Z,70.77
2022-11-14T17:58:34.488Z,71.07
2022-11-14T18:01:01.364Z,71.49
2022-11-14T18:03:27.909Z,70.16
2022-11-14T18:06:14.094Z,70.19
2022-11-14T18:08:40.578Z,70.50
2022-11-14T18:11:09.976Z,71.46
2022-11-14T18:13:37.240Z,71.33
2022-11-14T18:16:06.432Z,71.31
2022-11-14T18:18:34.757Z,72.09
2022-11-14T18:21:11.280Z,72.08
2022-11-14T18:23:38.693Z,72.24
2022-11-14T18:26:18.623Z,71.60
2022-11-14T18:28:45.033Z,71.67
2022-11-14T18:31:12.100Z,70.90
2022-11-14T18:33:40.038Z,72.25
2022-11-14T18:36:10.425Z,72.50
2022-11-14T18:38:36.998Z,71.75
2022-11-14T18:41:07.858Z,72.56
2022-11-14T18:43:34.621Z,71.96
2022-11-14T18:46:13.009Z,71.51
2022-11-14T18:48:41.536Z,71.12
2022-11-14T18:51:11.832Z,71.64
2022-11-14T18:53:38.465Z,74.58
2022-11-14T18:56:05.953Z,74.28
2022-11-14T18:58:32.836Z,74.24
2022-11-14T19:01:08.618Z,73.97
2022-11-14T19:03:35.156Z,73.50
2022-11-14T19:06:02.788Z,73.64
2022-11-14T19:08:29.344Z,72.47
2022-11-14T19:11:06.657Z,74.22
2022-11-14T19:13:33.713Z,73.51
2022-11-14T19:16:04.794Z,73.39
2022-11-14T19:18:32.171Z,73.57
2022-11-14T19:21:00.668Z,73.12
2022-11-14T19:23:28.798Z,72.11
2022-11-14T19:26:00.579Z,71.66
2022-11-14T19:28:29.361Z,72.27
2022-11-14T19:31:02.565Z,71.47
2022-11-14T19:33:47.296Z,72.03
2022-11-14T19:36:18.766Z,71.38
2022-11-14T19:38:59.842Z,72.00
2022-11-14T19:41:28.728Z,71.87
2022-11-14T19:43:57.130Z,71.31
2022-11-14T19:46:28.945Z,71.82
2022-11-14T19:49:00.393Z,71.46
2022-11-14T19:51:27.973Z,72.50
2022-11-14T19:53:55.373Z,71.80
2022-11-14T19:56:23.390Z,72.34
2022-11-14T19:58:51.799Z,71.93
2022-11-14T20:01:20.748Z,71.58
2022-11-14T20:03:52.294Z,72.60
2022-11-14T20:06:26.850Z,72.71
2022-11-14T20:08:54.642Z,72.24
2022-11-14T20:11:22.284Z,70.54
2022-11-14T20:13:49.617Z,71.76
2022-11-14T20:16:20.963Z,71.24
2022-11-14T20:18:57.467Z,71.58
2022-11-14T20:21:27.238Z,72.09
2022-11-14T20:23:54.170Z,71.07
2022-11-14T20:26:21.659Z,71.05
2022-11-14T20:28:50.642Z,71.24
2022-11-14T20:31:25.799Z,70.98
2022-11-14T20:33:53.535Z,69.84
2022-11-14T20:36:22.631Z,69.17
2022-11-14T20:38:49.296Z,71.66
2022-11-14T20:41:16.874Z,70.12
2022-11-14T20:43:43.949Z,69.32
2022-11-14T20:46:14.201Z,71.79
2022-11-14T20:48:41.127Z,71.57
2022-11-14T20:51:08.573Z,71.16
2022-11-14T20:53:35.336Z,72.50
2022-11-14T20:56:02.055Z,70.81
2022-11-14T20:58:28.546Z,69.33
2022-11-14T21:00:55.242Z,71.05
2022-11-14T21:03:21.939Z,71.74
2022-11-14T21:05:48.514Z,70.67
2022-11-14T21:08:16.848Z,70.62
2022-11-14T21:10:45.938Z,70.74
2022-11-14T21:13:35.980Z,70.66
2022-11-14T21:16:05.717Z,68.52
2022-11-14T21:18:32.858Z,69.19
2022-11-14T21:21:02.474Z,69.12
2022-11-14T21:23:29.589Z,70.11
2022-11-14T21:26:10.536Z,69.94
2022-11-14T21:28:39.699Z,69.45
2022-11-14T21:31:37.749Z,69.54
2022-11-14T21:34:07.116Z,69.19
2022-11-14T21:36:48.893Z,69.85
2022-11-14T21:39:16.676Z,69.29
2022-11-14T21:41:44.479Z,69.82
2022-11-14T21:44:14.347Z,70.54
2022-11-14T21:46:41.104Z,69.32
2022-11-14T21:49:08.079Z,69.17
2022-11-14T21:51:34.803Z,69.49
2022-11-14T21:54:06.286Z,69.10
2022-11-14T21:56:35.103Z,70.87
2022-11-14T21:59:12.624Z,70.00
2022-11-14T22:01:58.738Z,69.75
2022-11-14T22:04:25.865Z,69.25
2022-11-14T22:06:52.723Z,69.74
2022-11-14T22:09:19.606Z,69.80
2022-11-14T22:11:46.461Z,70.71
2022-11-14T22:14:12.942Z,71.46
2022-11-14T22:16:39.985Z,70.99
2022-11-14T22:19:06.936Z,69.67
2022-11-14T22:21:33.366Z,69.89
2022-11-14T22:23:59.853Z,70.23
2022-11-14T22:26:26.337Z,69.88
2022-11-14T22:28:52.750Z,68.70
2022-11-14T22:31:21.392Z,68.26
2022-11-14T22:33:50.008Z,69.20
2022-11-14T22:36:18.480Z,68.81
2022-11-14T22:38:46.040Z,68.91
2022-11-14T22:41:21.111Z,69.75
2022-11-14T22:43:47.724Z,68.77
2022-11-14T22:46:17.707Z,68.63
2022-11-14T22:48:45.408Z,67.37
2022-11-14T22:51:15.858Z,66.88
2022-11-14T22:53:46.300Z,67.48
2022-11-14T22:56:12.725Z,68.47
2022-11-14T22:58:41.260Z,67.34
2022-11-14T23:01:11.619Z,68.48
2022-11-14T23:03:38.879Z,68.34
2022-11-14T23:06:13.778Z,69.63
2022-11-14T23:08:40.859Z,69.76
2022-11-14T23:11:10.819Z,69.49
2022-11-14T23:13:39.386Z,69.01
2022-11-14T23:16:19.041Z,69.15
2022-11-14T23:18:46.397Z,69.61
2022-11-14T23:21:43.244Z,69.68
2022-11-14T23:24:14.457Z,68.95
2022-11-14T23:26:40.931Z,69.91
2022-11-14T23:29:07.352Z,68.86
2022-11-14T23:31:33.774Z,68.15
2022-11-14T23:34:00.217Z,68.37
2022-11-14T23:36:29.588Z,68.44
2022-11-14T23:38:56.079Z,67.31
2022-11-14T23:41:27.179Z,68.35
2022-11-14T23:43:53.664Z,68.12
2022-11-14T23:46:20.108Z,68.56
2022-11-14T23:48:46.555Z,69.24
2022-11-14T23:51:13.698Z,69.88
2022-11-14T23:53:41.012Z,69.34
2022-11-14T23:56:12.632Z,70.25
2022-11-14T23:58:39.731Z,69.33
